createdAt,value
2023-03-24T00:01:21.649Z,9.72
2023-03-24T00:03:51.375Z,9.69
2023-03-24T00:06:21.973Z,9.65
2023-03-24T00:08:49.888Z,9.62
2023-03-24T00:11:18.938Z,9.60
2023-03-24T00:13:48.722Z,9.59
2023-03-24T00:16:18.851Z,9.56
2023-03-24T00:18:48.517Z,9.53
2023-03-24T00:21:17.778Z,9.48
2023-03-24T00:23:47.207Z,9.47
2023-03-24T00:26:16.090Z,9.42
2023-03-24T00:28:47.439Z,9.39
2023-03-24T00:31:17.554Z,9.35
2023-03-24T00:33:50.623Z,9.30
2023-03-24T00:36:22.593Z,9.14
2023-03-24T00:38:50.531Z,9.14
2023-03-24T00:41:19.760Z,9.12
2023-03-24T00:43:49.773Z,9.08
2023-03-24T00:46:27.612Z,9.02
2023-03-24T00:49:04.987Z,8.98
2023-03-24T00:51:38.047Z,8.95
2023-03-24T00:54:09.042Z,8.92
2023-03-24T00:56:39.940Z,8.92
2023-03-24T00:59:09.433Z,8.91
2023-03-24T01:01:39.047Z,8.91
2023-03-24T01:04:07.298Z,8.91
2023-03-24T01:06:37.768Z,8.90
2023-03-24T01:09:07.257Z,8.86
2023-03-24T01:11:40.713Z,8.83
2023-03-24T01:14:10.678Z,8.81
2023-03-24T01:16:39.098Z,8.81
2023-03-24T01:19:08.728Z,8.80
2023-03-24T01:21:38.338Z,8.78
2023-03-24T01:24:07.200Z,8.77
2023-03-24T01:26:35.458Z,8.76
2023-03-24T01:29:03.675Z,8.74
2023-03-24T01:31:31.813Z,8.74
2023-03-24T01:33:59.732Z,8.74
2023-03-24T01:36:27.650Z,8.76
2023-03-24T01:38:57.340Z,8.77
2023-03-24T01:41:27.856Z,8.76
2023-03-24T01:43:56.155Z,8.76
2023-03-24T01:46:26.004Z,8.79
2023-03-24T01:48:59.365Z,8.80
2023-03-24T01:51:35.379Z,8.77
2023-03-24T01:54:17.938Z,8.77
2023-03-24T01:56:53.954Z,8.77
2023-03-24T01:59:27.242Z,8.81
2023-03-24T02:01:59.399Z,8.84
2023-03-24T02:04:42.698Z,8.90
2023-03-24T02:07:31.835Z,8.93
2023-03-24T02:10:08.127Z,8.97
2023-03-24T02:12:42.959Z,9.03
2023-03-24T02:15:14.660Z,9.05
2023-03-24T02:18:13.176Z,9.01
2023-03-24T02:21:12.025Z,9.02
2023-03-24T02:24:19.168Z,9.02
2023-03-24T02:27:22.829Z,8.99
2023-03-24T02:30:18.684Z,8.92
2023-03-24T02:33:13.836Z,8.85
2023-03-24T02:36:02.615Z,8.78
2023-03-24T02:38:56.231Z,8.75
2023-03-24T02:41:52.180Z,8.65
2023-03-24T02:44:31.040Z,8.65
2023-03-24T02:47:32.468Z,8.59
2023-03-24T02:50:26.866Z,8.51
2023-03-24T02:53:28.961Z,8.40
2023-03-24T02:56:22.573Z,8.34
2023-03-24T02:59:02.908Z,8.32
2023-03-24T03:01:40.680Z,8.25
2023-03-24T03:04:33.369Z,8.12
2023-03-24T03:07:05.807Z,8.05
2023-03-24T03:09:37.976Z,8.03
2023-03-24T03:12:10.016Z,8.00
2023-03-24T03:14:45.974Z,8.01
2023-03-24T03:17:18.675Z,7.98
2023-03-24T03:20:04.683Z,7.97
2023-03-24T03:23:01.911Z,7.98
2023-03-24T03:25:35.379Z,8.01
2023-03-24T03:28:06.647Z,8.03
2023-03-24T03:30:58.654Z,8.05
2023-03-24T03:33:40.466Z,8.07
2023-03-24T03:36:13.731Z,8.09
2023-03-24T03:39:16.665Z,8.12
2023-03-24T03:41:47.290Z,8.15
2023-03-24T03:44:15.476Z,8.18
2023-03-24T03:46:43.482Z,8.18
2023-03-24T03:49:13.228Z,8.16
2023-03-24T03:51:41.160Z,8.17
2023-03-24T03:54:12.499Z,8.17
2023-03-24T03:56:42.630Z,8.18
2023-03-24T03:59:29.049Z,8.18
2023-03-24T04:01:57.881Z,8.17
2023-03-24T04:04:53.283Z,8.15
2023-03-24T04:07:39.155Z,8.15
2023-03-24T04:10:52.325Z,8.13
2023-03-24T04:14:13.481Z,8.13
2023-03-24T04:17:25.488Z,8.13
2023-03-24T04:20:14.861Z,8.11
2023-03-24T04:23:08.947Z,8.10
2023-03-24T04:25:58.291Z,8.09
2023-03-24T04:28:42.936Z,8.11
2023-03-24T04:31:34.450Z,8.13
2023-03-24T04:34:20.306Z,8.14
2023-03-24T04:36:56.990Z,8.18
2023-03-24T04:39:30.164Z,8.21
2023-03-24T04:42:04.156Z,8.26
2023-03-24T04:44:33.293Z,8.28
2023-03-24T04:47:22.537Z,8.30
2023-03-24T04:50:01.849Z,8.32
2023-03-24T04:52:30.318Z,8.30
2023-03-24T04:55:00.137Z,8.30
2023-03-24T04:57:27.870Z,8.30
2023-03-24T05:00:00.769Z,8.29
2023-03-24T05:02:28.684Z,8.26
2023-03-24T05:05:02.368Z,8.22
2023-03-24T05:07:32.491Z,8.21
2023-03-24T05:10:01.915Z,8.18
2023-03-24T05:12:30.831Z,8.17
2023-03-24T05:15:01.104Z,8.16
2023-03-24T05:17:29.164Z,8.17
2023-03-24T05:19:56.907Z,8.19
2023-03-24T05:22:25.150Z,8.22
2023-03-24T05:24:52.775Z,8.26
2023-03-24T05:27:20.975Z,8.31
2023-03-24T05:29:48.685Z,8.34
2023-03-24T05:32:17.997Z,8.38
2023-03-24T05:34:45.735Z,8.41
2023-03-24T05:37:16.963Z,8.47
2023-03-24T05:39:46.460Z,8.54
2023-03-24T05:42:16.999Z,8.58
2023-03-24T05:44:45.247Z,8.62
2023-03-24T05:47:16.113Z,8.67
2023-03-24T05:49:44.236Z,8.74
2023-03-24T05:52:15.371Z,8.82
2023-03-24T05:54:45.568Z,8.89
2023-03-24T05:57:16.249Z,8.96
2023-03-24T05:59:48.858Z,9.06
2023-03-24T06:02:21.492Z,9.12
2023-03-24T06:04:51.330Z,9.21
2023-03-24T06:07:21.766Z,9.28
2023-03-24T06:09:51.503Z,9.35
2023-03-24T06:12:21.132Z,9.43
2023-03-24T06:14:51.211Z,9.54
2023-03-24T06:17:20.717Z,9.62
2023-03-24T06:19:51.082Z,9.72
2023-03-24T06:22:38.244Z,9.84
2023-03-24T06:25:09.311Z,9.95
2023-03-24T06:27:37.872Z,10.03
2023-03-24T06:30:08.040Z,10.14
2023-03-24T06:32:36.141Z,10.21
2023-03-24T06:35:04.242Z,10.28
2023-03-24T06:37:42.966Z,10.36
2023-03-24T06:40:15.118Z,10.46
2023-03-24T06:42:44.777Z,10.57
2023-03-24T06:45:12.613Z,10.67
2023-03-24T06:47:40.205Z,10.78
2023-03-24T06:50:09.971Z,10.89
2023-03-24T06:52:37.833Z,11.02
2023-03-24T06:55:07.783Z,11.11
2023-03-24T06:57:35.425Z,11.25
2023-03-24T07:00:11.420Z,11.38
2023-03-24T07:02:42.333Z,11.54
2023-03-24T07:05:10.562Z,11.63
2023-03-24T07:10:33.344Z,11.89
2023-03-24T07:13:02.789Z,12.02
2023-03-24T07:15:30.989Z,12.22
2023-03-24T07:17:58.781Z,12.43
2023-03-24T07:20:42.070Z,12.59
2023-03-24T07:23:14.768Z,12.74
2023-03-24T07:25:44.445Z,12.84
2023-03-24T07:28:14.302Z,12.91
2023-03-24T07:30:42.601Z,12.95
2023-03-24T07:33:12.077Z,12.99
2023-03-24T07:35:41.243Z,13.08
2023-03-24T07:38:11.661Z,13.18
2023-03-24T07:40:39.215Z,13.27
2023-03-24T07:43:06.943Z,13.33
2023-03-24T07:45:36.506Z,13.46
2023-03-24T07:48:05.210Z,13.58
2023-03-24T07:50:34.914Z,13.65
2023-03-24T07:53:04.842Z,13.80
2023-03-24T07:55:32.799Z,14.00
2023-03-24T07:58:02.252Z,14.19
2023-03-24T08:00:32.325Z,14.29
2023-03-24T08:03:05.168Z,14.38
2023-03-24T08:05:52.244Z,14.47
2023-03-24T08:08:21.894Z,14.64
2023-03-24T08:10:50.441Z,14.80
2023-03-24T08:13:18.251Z,14.94
2023-03-24T08:15:46.336Z,14.96
2023-03-24T08:18:14.182Z,14.97
2023-03-24T08:20:41.937Z,15.04
2023-03-24T08:23:09.923Z,15.13
2023-03-24T08:25:38.117Z,15.21
2023-03-24T08:28:06.162Z,15.28
2023-03-24T08:30:33.980Z,15.31
2023-03-24T08:33:02.797Z,15.39
2023-03-24T08:35:37.072Z,15.49
2023-03-24T08:38:07.265Z,15.59
2023-03-24T08:40:38.206Z,15.70
2023-03-24T08:43:09.061Z,15.83
2023-03-24T08:45:37.490Z,15.97
2023-03-24T08:48:07.742Z,16.16
2023-03-24T08:50:39.101Z,16.31
2023-03-24T08:53:07.645Z,16.44
2023-03-24T08:55:37.576Z,16.57
2023-03-24T08:58:05.386Z,16.72
2023-03-24T09:00:32.915Z,16.86
2023-03-24T09:03:01.350Z,16.97
2023-03-24T09:05:41.379Z,17.09
2023-03-24T09:08:00.180Z,17.14
2023-03-24T09:10:27.567Z,17.23
2023-03-24T09:12:55.124Z,17.36
2023-03-24T09:15:23.073Z,17.48
2023-03-24T09:17:50.941Z,17.64
2023-03-24T09:20:18.912Z,17.85
2023-03-24T09:22:47.022Z,17.97
2023-03-24T09:25:20.450Z,18.10
2023-03-24T09:27:48.715Z,18.25
2023-03-24T09:30:18.126Z,18.39
2023-03-24T09:32:46.329Z,18.44
2023-03-24T09:35:15.139Z,18.38
2023-03-24T09:37:43.277Z,18.35
2023-03-24T09:40:24.613Z,18.42
2023-03-24T09:43:06.498Z,18.54
2023-03-24T09:45:39.484Z,18.66
2023-03-24T09:48:12.492Z,18.81
2023-03-24T09:51:07.088Z,18.95
2023-03-24T09:53:51.685Z,19.05
2023-03-24T09:56:22.997Z,19.10
2023-03-24T09:59:07.452Z,19.16
2023-03-24T10:01:35.943Z,19.22
2023-03-24T10:04:07.257Z,19.22
2023-03-24T10:06:41.712Z,19.20
2023-03-24T10:09:31.050Z,19.23
2023-03-24T10:12:22.286Z,19.27
2023-03-24T10:15:24.297Z,19.34
2023-03-24T10:18:12.211Z,19.45
2023-03-24T10:20:50.836Z,19.54
2023-03-24T10:23:36.105Z,19.64
2023-03-24T10:26:38.655Z,19.71
2023-03-24T10:29:26.962Z,19.83
2023-03-24T10:32:03.319Z,19.94
2023-03-24T10:34:33.752Z,19.92
2023-03-24T10:37:04.499Z,19.89
2023-03-24T10:39:43.582Z,19.85
2023-03-24T10:42:02.348Z,19.87
2023-03-24T10:44:30.503Z,19.84
2023-03-24T10:47:02.688Z,19.78
2023-03-24T10:49:30.991Z,19.81
2023-03-24T10:52:06.333Z,19.84
2023-03-24T10:54:33.984Z,19.84
2023-03-24T10:57:05.130Z,19.75
2023-03-24T10:59:41.169Z,19.72
2023-03-24T11:02:30.097Z,19.69
2023-03-24T11:05:01.862Z,19.72
2023-03-24T11:07:40.560Z,19.79
2023-03-24T11:10:18.705Z,19.87
2023-03-24T11:12:57.419Z,19.94
2023-03-24T11:15:29.931Z,19.90
2023-03-24T11:18:16.073Z,19.96
2023-03-24T11:20:57.738Z,20.01
2023-03-24T11:23:40.176Z,20.04
2023-03-24T11:26:19.211Z,20.01
2023-03-24T11:28:54.207Z,20.06
2023-03-24T11:31:29.962Z,20.12
2023-03-24T11:34:08.766Z,20.28
2023-03-24T11:36:43.842Z,20.42
2023-03-24T11:39:17.121Z,20.48
2023-03-24T11:42:05.351Z,20.44
2023-03-24T11:44:51.772Z,20.42
2023-03-24T11:47:39.917Z,20.45
2023-03-24T11:50:15.743Z,20.51
2023-03-24T11:52:54.903Z,20.61
2023-03-24T11:55:43.002Z,20.72
2023-03-24T11:58:40.407Z,20.82
2023-03-24T12:01:16.350Z,20.90
2023-03-24T12:04:28.760Z,20.90
2023-03-24T12:07:40.189Z,20.91
2023-03-24T12:10:31.380Z,21.01
2023-03-24T12:13:22.170Z,21.05
2023-03-24T12:16:12.388Z,21.05
2023-03-24T12:19:12.777Z,20.98
2023-03-24T12:21:52.194Z,20.97
2023-03-24T12:24:43.316Z,20.95
2023-03-24T12:27:42.608Z,20.83
2023-03-24T12:30:23.213Z,20.70
2023-03-24T12:33:28.361Z,20.73
2023-03-24T12:36:24.786Z,20.78
2023-03-24T12:39:18.666Z,20.91
2023-03-24T12:42:08.173Z,21.06
2023-03-24T12:45:05.112Z,21.12
2023-03-24T12:48:17.884Z,21.19
2023-03-24T12:51:00.176Z,21.28
2023-03-24T12:53:40.727Z,21.45
2023-03-24T12:56:18.664Z,21.65
2023-03-24T12:59:02.526Z,21.76
2023-03-24T13:01:50.550Z,21.83
2023-03-24T13:04:32.458Z,21.82
2023-03-24T13:07:14.163Z,21.84
2023-03-24T13:09:59.086Z,21.86
2023-03-24T13:12:55.088Z,21.83
2023-03-24T13:15:43.422Z,21.81
2023-03-24T13:18:16.723Z,21.78
2023-03-24T13:21:03.547Z,21.76
2023-03-24T13:24:09.996Z,21.67
2023-03-24T13:26:49.132Z,21.64
2023-03-24T13:29:49.687Z,21.59
2023-03-24T13:32:26.225Z,21.59
2023-03-24T13:35:26.757Z,21.60
2023-03-24T13:38:03.789Z,21.65
2023-03-24T13:40:33.876Z,21.73
2023-03-24T13:43:16.504Z,21.79
2023-03-24T13:45:51.888Z,21.76
2023-03-24T13:48:33.246Z,21.76
2023-03-24T13:51:15.019Z,21.78
2023-03-24T13:54:08.859Z,21.81
2023-03-24T13:56:41.917Z,21.89
2023-03-24T13:59:12.784Z,21.98
2023-03-24T14:01:45.001Z,22.01
2023-03-24T14:04:24.278Z,21.97
2023-03-24T14:06:59.782Z,21.88
2023-03-24T14:09:30.587Z,21.78
2023-03-24T14:12:17.502Z,21.71
2023-03-24T14:15:07.160Z,21.70
2023-03-24T14:17:34.620Z,21.70
2023-03-24T14:20:11.083Z,21.71
2023-03-24T14:22:47.820Z,21.68
2023-03-24T14:25:26.479Z,21.68
2023-03-24T14:28:43.791Z,21.58
2023-03-24T14:31:16.956Z,21.56
2023-03-24T14:34:01.140Z,21.53
2023-03-24T14:36:41.657Z,21.53
2023-03-24T14:39:45.779Z,21.56
2023-03-24T14:42:34.859Z,21.57
2023-03-24T14:45:14.375Z,21.51
2023-03-24T14:47:40.906Z,21.45
2023-03-24T14:50:22.073Z,21.46
2023-03-24T14:53:03.103Z,21.49
2023-03-24T14:55:31.660Z,21.52
2023-03-24T14:58:13.396Z,21.56
2023-03-24T15:00:57.928Z,21.56
2023-03-24T15:03:49.648Z,21.56
2023-03-24T15:06:22.197Z,21.51
2023-03-24T15:08:58.803Z,21.39
2023-03-24T15:11:36.847Z,21.36
2023-03-24T15:14:09.935Z,21.30
2023-03-24T15:16:38.190Z,21.27
2023-03-24T15:19:17.137Z,21.24
2023-03-24T15:21:51.379Z,21.23
2023-03-24T15:24:30.457Z,21.20
2023-03-24T15:27:19.756Z,21.21
2023-03-24T15:29:55.460Z,21.19
2023-03-24T15:32:26.611Z,21.13
2023-03-24T15:34:58.439Z,21.08
2023-03-24T15:37:34.004Z,21.02
2023-03-24T15:40:15.418Z,20.94
2023-03-24T15:42:32.873Z,20.89
2023-03-24T15:45:11.246Z,20.82
2023-03-24T15:47:41.568Z,20.77
2023-03-24T15:50:37.970Z,20.69
2023-03-24T15:53:22.988Z,20.63
2023-03-24T15:56:08.623Z,20.53
2023-03-24T15:58:50.896Z,20.44
2023-03-24T16:01:38.964Z,20.35
2023-03-24T16:04:15.203Z,20.28
2023-03-24T16:06:50.966Z,20.21
2023-03-24T16:09:24.364Z,20.12
2023-03-24T16:11:52.176Z,20.03
2023-03-24T16:14:30.122Z,19.93
2023-03-24T16:17:01.672Z,19.81
2023-03-24T16:19:29.664Z,19.67
2023-03-24T16:21:57.244Z,19.54
2023-03-24T16:24:25.462Z,19.42
2023-03-24T16:26:53.043Z,19.32
2023-03-24T16:29:23.542Z,19.20
2023-03-24T16:31:55.224Z,19.09
2023-03-24T16:34:23.492Z,18.97
2023-03-24T16:36:53.745Z,18.83
2023-03-24T16:39:27.784Z,18.68
2023-03-24T16:41:56.244Z,18.52
2023-03-24T16:44:25.192Z,18.39
2023-03-24T16:46:54.589Z,18.24
2023-03-24T16:49:23.857Z,18.11
2023-03-24T16:51:53.386Z,17.98
2023-03-24T16:54:21.251Z,17.85
2023-03-24T16:56:49.104Z,17.71
2023-03-24T16:59:17.112Z,17.59
2023-03-24T17:01:46.819Z,17.48
2023-03-24T17:04:18.492Z,17.33
2023-03-24T17:06:50.151Z,17.20
2023-03-24T17:09:18.295Z,17.06
2023-03-24T17:11:51.290Z,16.91
2023-03-24T17:14:19.094Z,16.79
2023-03-24T17:16:49.209Z,16.67
2023-03-24T17:19:21.397Z,16.55
2023-03-24T17:21:54.240Z,16.44
2023-03-24T17:24:23.646Z,16.31
2023-03-24T17:26:51.347Z,16.24
2023-03-24T17:29:18.961Z,16.17
2023-03-24T17:31:46.613Z,16.09
2023-03-24T17:36:48.675Z,15.97
2023-03-24T17:39:17.794Z,15.94
2023-03-24T17:41:45.949Z,15.89
2023-03-24T17:44:14.447Z,15.85
2023-03-24T17:46:42.254Z,15.80
2023-03-24T17:49:09.818Z,15.76
2023-03-24T17:51:37.418Z,15.71
2023-03-24T17:54:05.631Z,15.68
2023-03-24T17:56:33.207Z,15.64
2023-03-24T17:59:02.770Z,15.59
2023-03-24T18:01:33.069Z,15.52
2023-03-24T18:04:01.233Z,15.45
2023-03-24T18:06:30.231Z,15.42
2023-03-24T18:08:58.286Z,15.32
2023-03-24T18:11:26.024Z,15.26
2023-03-24T18:13:53.909Z,15.17
2023-03-24T18:16:22.383Z,15.09
2023-03-24T18:18:50.859Z,15.02
2023-03-24T18:21:19.327Z,14.95
2023-03-24T18:23:47.661Z,14.91
2023-03-24T18:26:17.032Z,14.85
2023-03-24T18:28:45.781Z,14.80
2023-03-24T18:31:18.257Z,14.74
2023-03-24T18:33:48.946Z,14.71
2023-03-24T18:36:20.382Z,14.67
2023-03-24T18:38:48.885Z,14.63
2023-03-24T18:41:17.737Z,14.59
2023-03-24T18:43:47.420Z,14.51
2023-03-24T18:46:16.120Z,14.50
2023-03-24T18:48:44.150Z,14.47
2023-03-24T18:51:12.377Z,14.44
2023-03-24T18:53:40.454Z,14.38
2023-03-24T18:56:08.839Z,14.35
2023-03-24T18:58:40.159Z,14.34
2023-03-24T19:01:11.428Z,14.33
2023-03-24T19:03:42.450Z,14.29
2023-03-24T19:06:12.856Z,14.25
2023-03-24T19:08:44.730Z,14.18
2023-03-24T19:11:15.374Z,14.15
2023-03-24T19:13:47.806Z,14.13
2023-03-24T19:16:16.808Z,14.08
2023-03-24T19:18:44.439Z,14.04
2023-03-24T19:21:12.730Z,14.02
2023-03-24T19:23:41.959Z,14.00
2023-03-24T19:26:09.887Z,13.97
2023-03-24T19:28:37.790Z,13.93
2023-03-24T19:31:15.379Z,13.91
2023-03-24T19:33:44.567Z,13.85
2023-03-24T19:36:13.422Z,13.82
2023-03-24T19:38:41.605Z,13.79
2023-03-24T19:41:13.447Z,13.74
2023-03-24T19:43:41.590Z,13.67
2023-03-24T19:46:09.550Z,13.60
2023-03-24T19:48:37.466Z,13.55
2023-03-24T19:51:05.613Z,13.49
2023-03-24T19:53:33.409Z,13.44
2023-03-24T19:56:01.575Z,13.38
2023-03-24T19:58:29.821Z,13.33
2023-03-24T20:00:57.576Z,13.29
2023-03-24T20:03:25.566Z,13.26
2023-03-24T20:05:53.690Z,13.23
2023-03-24T20:08:25.130Z,13.20
2023-03-24T20:10:52.729Z,13.16
2023-03-24T20:13:20.369Z,13.11
2023-03-24T20:15:48.492Z,13.04
2023-03-24T20:18:16.374Z,12.98
2023-03-24T20:20:44.095Z,12.94
2023-03-24T20:23:11.819Z,12.87
2023-03-24T20:25:43.203Z,12.84
2023-03-24T20:28:10.915Z,12.81
2023-03-24T20:30:39.875Z,12.77
2023-03-24T20:33:07.625Z,12.74
2023-03-24T20:35:36.524Z,12.70
2023-03-24T20:38:04.437Z,12.70
2023-03-24T20:40:32.330Z,12.67
2023-03-24T20:43:00.008Z,12.66
2023-03-24T20:45:29.498Z,12.64
2023-03-24T20:47:59.129Z,12.60
2023-03-24T20:50:27.142Z,12.59
2023-03-24T20:52:55.811Z,12.57
2023-03-24T20:55:23.442Z,12.53
2023-03-24T20:57:51.143Z,12.50
2023-03-24T21:00:19.992Z,12.48
2023-03-24T21:02:47.658Z,12.45
2023-03-24T21:05:15.792Z,12.42
2023-03-24T21:07:44.995Z,12.39
2023-03-24T21:10:13.238Z,12.35
2023-03-24T21:12:53.658Z,12.33
2023-03-24T21:15:10.896Z,12.28
2023-03-24T21:17:39.765Z,12.25
2023-03-24T21:20:10.819Z,12.20
2023-03-24T21:22:49.908Z,12.14
2023-03-24T21:25:17.496Z,12.10
2023-03-24T21:27:45.034Z,12.08
2023-03-24T21:30:13.293Z,12.03
2023-03-24T21:32:41.041Z,11.98
2023-03-24T21:35:10.896Z,11.97
2023-03-24T21:37:40.361Z,11.94
2023-03-24T21:40:10.059Z,11.92
2023-03-24T21:42:39.668Z,11.88
2023-03-24T21:45:14.915Z,11.86
2023-03-24T21:47:48.164Z,11.84
2023-03-24T21:50:20.750Z,11.82
2023-03-24T21:52:54.173Z,11.80
2023-03-24T21:55:24.794Z,11.79
2023-03-24T21:57:53.161Z,11.78
2023-03-24T22:00:23.965Z,11.75
2023-03-24T22:02:56.115Z,11.74
2023-03-24T22:05:27.274Z,11.69
2023-03-24T22:07:55.429Z,11.66
2023-03-24T22:10:23.240Z,11.65
2023-03-24T22:12:52.788Z,11.62
2023-03-24T22:15:22.003Z,11.60
2023-03-24T22:17:50.419Z,11.58
2023-03-24T22:20:19.570Z,11.52
2023-03-24T22:22:47.618Z,11.51
2023-03-24T22:25:18.198Z,11.48
2023-03-24T22:27:48.585Z,11.46
2023-03-24T22:30:17.540Z,11.40
2023-03-24T22:32:45.122Z,11.39
2023-03-24T22:35:12.704Z,11.40
2023-03-24T22:37:41.072Z,11.36
2023-03-24T22:40:09.938Z,11.36
2023-03-24T22:42:37.964Z,11.33
2023-03-24T22:45:07.747Z,11.30
2023-03-24T22:47:35.736Z,11.27
2023-03-24T22:50:04.419Z,11.23
2023-03-24T22:52:31.988Z,11.21
2023-03-24T22:54:59.493Z,11.18
2023-03-24T22:57:27.376Z,11.17
2023-03-24T22:59:56.383Z,11.14
2023-03-24T23:02:24.411Z,11.09
2023-03-24T23:04:52.649Z,11.06
2023-03-24T23:07:22.284Z,11.02
2023-03-24T23:09:49.834Z,11.01
2023-03-24T23:12:17.431Z,11.00
2023-03-24T23:14:45.872Z,10.97
2023-03-24T23:17:15.166Z,10.93
2023-03-24T23:19:43.034Z,10.90
2023-03-24T23:22:10.689Z,10.88
2023-03-24T23:24:38.914Z,10.86
2023-03-24T23:27:07.163Z,10.86
2023-03-24T23:29:40.122Z,10.85
2023-03-24T23:32:08.571Z,10.87
2023-03-24T23:34:37.535Z,10.88
2023-03-24T23:37:05.555Z,10.89
2023-03-24T23:39:34.972Z,10.91
2023-03-24T23:42:04.614Z,10.88
2023-03-24T23:44:32.434Z,10.86
2023-03-24T23:46:59.885Z,10.81
2023-03-24T23:49:27.355Z,10.76
2023-03-24T23:51:55.118Z,10.74
2023-03-24T23:54:22.908Z,10.70
2023-03-24T23:56:50.896Z,10.70
2023-03-24T23:59:18.550Z,10.68
